Time;durP1;ratioP1;P1;durP2;ratioP2;P2;SDS_P1;SDS_P2;PMS_P1;PMS_P2;Temp;Humidity;BMP_temperature;BMP_pressure;BME280_temperature;BME280_humidity;BME280_pressure;Samples;Min_cycle;Max_cycle;Signal;HPM_P1;HPM_P2
2023/12/26 00:01:06;;;;;;;16.25;3.05;;;9.30;99.90;;;-144.20;100.00;62730.56;4170221;28;20112;-74
2023/12/26 00:03:07;;;;;;;11.57;2.85;;;9.20;99.90;;;-144.20;100.00;62730.56;4169124;28;20031;-74
2023/12/26 00:05:08;;;;;;;15.07;3.92;;;9.20;99.90;;;-144.20;100.00;62730.56;4170317;28;20026;-73
2023/12/26 00:07:09;;;;;;;14.95;3.78;;;9.20;99.90;;;-144.20;100.00;62730.56;4202125;28;20021;-74
2023/12/26 00:09:15;;;;;;;14.13;2.95;;;9.10;99.90;;;-144.20;100.00;62730.56;4170258;28;20400;-74
2023/12/26 00:11:16;;;;;;;13.50;2.88;;;9.20;99.90;;;-144.20;100.00;62730.56;4156900;28;20022;-74
2023/12/26 00:13:17;;;;;;;17.60;3.65;;;9.10;99.90;;;-144.20;100.00;62730.56;4168841;28;20025;-74
2023/12/26 00:15:18;;;;;;;18.02;3.58;;;9.20;99.90;;;-144.20;100.00;62730.56;4170177;28;20030;-74
2023/12/26 00:17:18;;;;;;;13.73;3.05;;;9.20;99.90;;;-144.20;100.00;62730.56;4168986;28;20029;-74
2023/12/26 00:19:19;;;;;;;12.15;2.65;;;9.20;99.90;;;-144.20;100.00;62730.56;4168703;28;20030;-74
2023/12/26 00:21:20;;;;;;;26.90;3.72;;;9.30;99.90;;;-144.20;100.00;62730.56;4168684;28;20018;-74
2023/12/26 00:23:21;;;;;;;15.98;3.33;;;9.30;99.90;;;-144.20;100.00;62730.56;4170184;28;20021;-74
2023/12/26 00:25:22;;;;;;;16.52;3.22;;;9.40;99.90;;;-144.20;100.00;62730.56;4201647;28;20016;-74
2023/12/26 00:27:23;;;;;;;21.17;3.85;;;9.40;99.90;;;-144.20;100.00;62730.56;4169918;28;20025;-74
2023/12/26 00:29:24;;;;;;;17.40;3.15;;;9.50;99.90;;;-144.20;100.00;62730.56;4168558;28;20104;-74
2023/12/26 00:31:25;;;;;;;14.85;2.85;;;9.60;99.90;;;-144.20;100.00;62730.56;4169933;28;20032;-73
2023/12/26 00:33:26;;;;;;;14.32;2.85;;;9.70;99.90;;;-144.20;100.00;62730.56;4152205;28;20518;-73
2023/12/26 00:35:27;;;;;;;18.17;3.85;;;9.80;99.90;;;-144.20;100.00;62730.56;4169780;28;20091;-74
2023/12/26 00:37:29;;;;;;;14.13;3.00;;;9.80;99.90;;;-144.20;100.00;62730.56;4169893;28;20056;-74
2023/12/26 00:39:29;;;;;;;12.85;2.63;;;9.90;99.90;;;-144.20;100.00;62730.56;4168409;28;20030;-73
2023/12/26 00:41:30;;;;;;;16.08;2.90;;;10.00;99.90;;;-144.20;100.00;62730.56;4171770;28;20503;-74
2023/12/26 00:43:31;;;;;;;16.42;2.92;;;10.00;99.90;;;-144.20;100.00;62730.56;4168232;28;20511;-74
2023/12/26 00:45:32;;;;;;;17.50;3.22;;;10.10;99.90;;;-144.20;100.00;62730.56;4169124;28;20504;-74
2023/12/26 00:47:33;;;;;;;26.33;3.55;;;10.20;99.90;;;-144.20;100.00;62730.56;4168349;28;20460;-74
2023/12/26 00:49:34;;;;;;;18.23;4.20;;;10.20;99.90;;;-144.20;100.00;62730.56;4169477;28;20485;-74
2023/12/26 00:51:34;;;;;;;12.68;2.20;;;10.30;99.90;;;-144.20;100.00;62730.56;4167527;28;20025;-74
2023/12/26 00:53:35;;;;;;;16.40;3.50;;;10.30;99.90;;;-144.20;100.00;62730.56;4169730;28;20036;-73
2023/12/26 00:55:36;;;;;;;15.07;3.33;;;10.30;99.90;;;-144.20;100.00;62730.56;4169584;28;20029;-74
2023/12/26 00:57:37;;;;;;;20.58;3.47;;;10.40;99.90;;;-144.20;100.00;62730.56;4169419;28;20378;-74
2023/12/26 00:59:38;;;;;;;12.25;3.03;;;10.40;99.90;;;-144.20;100.00;62730.56;4169178;28;20036;-74
2023/12/26 01:01:40;;;;;;;18.25;3.08;;;10.40;99.90;;;-144.20;100.00;62730.56;4169288;28;20041;-74
2023/12/26 01:03:41;;;;;;;16.05;2.45;;;10.40;99.90;;;-144.20;100.00;62730.56;4168386;28;20611;-73
2023/12/26 01:05:42;;;;;;;11.13;2.38;;;10.40;99.90;;;-144.20;100.00;62730.56;4168918;28;20030;-74
2023/12/26 01:07:42;;;;;;;13.00;2.55;;;10.50;99.90;;;-144.20;100.00;62730.56;4169348;28;20397;-74
2023/12/26 01:09:43;;;;;;;19.27;4.32;;;10.50;99.90;;;-144.20;100.00;62730.56;4166266;28;20424;-74
2023/12/26 01:11:44;;;;;;;18.85;4.15;;;10.50;99.90;;;-144.20;100.00;62730.56;4159333;28;20022;-74
2023/12/26 01:13:45;;;;;;;15.70;2.92;;;10.50;99.90;;;-144.20;100.00;62730.56;4167774;28;20025;-74
2023/12/26 01:15:46;;;;;;;9.70;2.40;;;10.50;99.90;;;-144.20;100.00;62730.56;4169193;28;20103;-74
2023/12/26 01:17:47;;;;;;;20.48;3.97;;;10.60;99.90;;;-144.20;100.00;62730.56;4169121;28;20385;-74
2023/12/26 01:19:48;;;;;;;12.07;2.83;;;10.60;99.90;;;-144.20;100.00;62730.56;4168000;28;20030;-74
2023/12/26 01:21:49;;;;;;;17.50;3.90;;;10.60;99.90;;;-144.20;100.00;62730.56;4169248;28;20033;-74
2023/12/26 01:23:51;;;;;;;12.93;2.00;;;10.60;99.90;;;-144.20;100.00;62730.56;4167817;28;20034;-74
2023/12/26 01:25:51;;;;;;;16.65;2.88;;;10.60;99.90;;;-144.20;100.00;62730.56;4168917;28;20022;-74
2023/12/26 01:27:52;;;;;;;25.80;3.72;;;10.50;99.90;;;-144.20;100.00;62730.56;4169078;28;20052;-74
2023/12/26 01:29:53;;;;;;;11.63;3.00;;;10.60;99.90;;;-144.20;100.00;62730.56;4168787;28;20051;-74
2023/12/26 01:31:54;;;;;;;12.70;3.25;;;10.60;99.90;;;-144.20;100.00;62730.56;4169086;28;20021;-74
2023/12/26 01:33:55;;;;;;;10.23;2.83;;;10.60;99.90;;;-144.20;100.00;62730.56;4167621;28;20031;-73
2023/12/26 01:35:55;;;;;;;14.60;3.83;;;10.50;99.90;;;-144.20;100.00;62730.56;4200898;28;20029;-74
2023/12/26 01:37:56;;;;;;;14.95;2.70;;;10.50;99.90;;;-144.20;100.00;62730.56;4167521;28;20031;-74
2023/12/26 01:39:57;;;;;;;15.50;3.75;;;10.50;99.90;;;-144.20;100.00;62730.56;4167658;28;20072;-74
2023/12/26 01:41:58;;;;;;;17.52;2.80;;;10.50;99.90;;;-144.20;100.00;62730.56;4168769;28;20033;-74
2023/12/26 01:43:59;;;;;;;13.38;3.17;;;10.40;99.90;;;-144.20;100.00;62730.56;4167594;28;20091;-74
2023/12/26 01:46:01;;;;;;;14.13;3.10;;;10.40;99.90;;;-144.20;100.00;62730.56;4168769;28;20034;-74
2023/12/26 01:48:04;;;;;;;15.60;3.78;;;10.40;99.90;;;-144.20;100.00;62730.56;4167643;28;20508;-74
2023/12/26 01:50:08;;;;;;;23.73;4.67;;;10.30;99.90;;;-144.20;100.00;62730.56;4166807;28;20100;-74
2023/12/26 01:52:10;;;;;;;13.20;3.72;;;10.30;99.90;;;-144.20;100.00;62730.56;4167570;28;20370;-74
2023/12/26 01:54:11;;;;;;;19.80;3.10;;;10.30;99.90;;;-144.20;100.00;62730.56;4168799;28;20401;-74
2023/12/26 01:56:16;;;;;;;14.40;3.20;;;10.30;99.90;;;-144.20;100.00;62730.56;4167488;28;20068;-74
2023/12/26 01:58:17;;;;;;;23.42;3.42;;;10.30;99.90;;;-144.20;100.00;62730.56;4167216;28;20032;-74
2023/12/26 02:00:18;;;;;;;15.85;3.40;;;10.30;99.90;;;-144.20;100.00;62730.56;4151113;28;20025;-74
2023/12/26 02:02:19;;;;;;;14.45;2.70;;;10.20;99.90;;;-144.20;100.00;62730.56;4183690;28;20100;-74
2023/12/26 02:04:20;;;;;;;14.10;2.60;;;10.20;99.90;;;-144.20;100.00;62730.56;4167392;28;20033;-74
2023/12/26 02:06:21;;;;;;;17.27;3.28;;;10.20;99.90;;;-144.20;100.00;62730.56;4150878;28;20034;-74
2023/12/26 02:08:22;;;;;;;13.15;3.05;;;10.20;99.90;;;-144.20;100.00;62730.56;4178904;28;20028;-74
2023/12/26 02:10:24;;;;;;;21.02;4.32;;;10.20;99.90;;;-144.20;100.00;62730.56;4159452;28;20508;-74
2023/12/26 02:12:25;;;;;;;18.60;4.22;;;10.20;99.90;;;-144.20;100.00;62730.56;4150993;28;20018;-74
2023/12/26 02:14:25;;;;;;;11.88;2.85;;;10.20;99.90;;;-144.20;100.00;62730.56;4198397;28;20507;-73
2023/12/26 02:16:27;;;;;;;13.35;2.60;;;10.20;99.90;;;-144.20;100.00;62730.56;4168673;28;20021;-73
2023/12/26 02:18:29;;;;;;;19.70;3.28;;;10.20;99.90;;;-144.20;100.00;62730.56;4167164;28;20574;-74
2023/12/26 02:20:30;;;;;;;13.55;3.42;;;10.20;99.90;;;-144.20;100.00;62730.56;4160178;28;20032;-74
2023/12/26 02:22:31;;;;;;;16.90;3.22;;;10.10;99.90;;;-144.20;100.00;62730.56;4166845;28;20400;-74
2023/12/26 02:24:32;;;;;;;13.10;1.92;;;10.10;99.90;;;-144.20;100.00;62730.56;4167409;28;20116;-74
2023/12/26 02:26:40;;;;;;;15.95;3.50;;;10.00;99.90;;;-144.20;100.00;62730.56;4150841;28;20432;-74
2023/12/26 02:28:41;;;;;;;12.82;2.25;;;10.00;99.90;;;-144.20;100.00;62730.56;4167152;28;20029;-74
2023/12/26 02:30:44;;;;;;;10.35;2.83;;;10.00;99.90;;;-144.20;100.00;62730.56;4167004;28;20507;-74
2023/12/26 02:32:46;;;;;;;14.38;2.50;;;10.00;99.90;;;-144.20;100.00;62730.56;4167353;28;20033;-74
2023/12/26 02:34:50;;;;;;;9.23;2.38;;;10.00;99.90;;;-144.20;100.00;62730.56;4167371;28;20026;-74
2023/12/26 02:36:50;;;;;;;10.48;2.25;;;10.00;99.90;;;-144.20;100.00;62730.56;4167467;28;20459;-74
2023/12/26 02:38:51;;;;;;;9.88;3.00;;;10.00;99.90;;;-144.20;100.00;62730.56;4168267;28;20021;-74
2023/12/26 02:40:52;;;;;;;16.10;3.13;;;10.00;99.90;;;-144.20;100.00;62730.56;4168033;28;20032;-74
2023/12/26 02:42:53;;;;;;;12.88;2.42;;;9.90;99.90;;;-144.20;100.00;62730.56;4171926;28;20112;-74
2023/12/26 02:44:54;;;;;;;8.45;1.98;;;9.80;99.90;;;-144.20;100.00;62730.56;4167309;28;20029;-74
2023/12/26 02:46:55;;;;;;;21.40;3.33;;;9.70;99.90;;;-144.20;100.00;62730.56;4168253;28;20025;-74
2023/12/26 02:48:55;;;;;;;15.13;3.22;;;9.70;99.90;;;-144.20;100.00;62730.56;4167059;28;20022;-74
2023/12/26 02:50:56;;;;;;;9.32;1.98;;;9.60;99.90;;;-144.20;100.00;62730.56;4168377;28;20021;-74
2023/12/26 02:52:57;;;;;;;11.73;2.10;;;9.60;99.90;;;-144.20;100.00;62730.56;4167743;28;20027;-74
2023/12/26 02:54:58;;;;;;;10.65;3.33;;;9.50;99.90;;;-144.20;100.00;62730.56;4166801;28;20037;-74
2023/12/26 02:56:59;;;;;;;13.32;3.17;;;9.50;99.90;;;-144.20;100.00;62730.56;4199811;28;20100;-74
2023/12/26 02:58:59;;;;;;;9.65;2.20;;;9.50;99.90;;;-144.20;100.00;62730.56;4166646;28;20488;-74
2023/12/26 03:01:00;;;;;;;15.98;3.17;;;9.40;99.90;;;-144.20;100.00;62730.56;4172682;28;20507;-74
2023/12/26 03:03:01;;;;;;;13.63;2.67;;;9.50;99.90;;;-144.20;100.00;62730.56;4198759;28;20080;-74
2023/12/26 03:05:02;;;;;;;13.65;2.05;;;9.40;99.90;;;-144.20;100.00;62730.56;4168435;28;20542;-73
2023/12/26 03:07:04;;;;;;;12.85;2.72;;;9.50;99.90;;;-144.20;100.00;62730.56;4167032;28;20057;-74
2023/12/26 03:09:05;;;;;;;12.25;2.25;;;9.50;99.90;;;-144.20;100.00;62730.56;4170090;28;20037;-74
2023/12/26 03:11:06;;;;;;;10.73;2.47;;;9.50;99.90;;;-144.20;100.00;62730.56;4176187;28;20021;-73
2023/12/26 03:13:07;;;;;;;13.63;2.97;;;9.60;99.90;;;-144.20;100.00;62730.56;4169666;28;20041;-74
2023/12/26 03:15:10;;;;;;;14.98;2.38;;;9.50;99.90;;;-144.20;100.00;62730.56;4171178;28;20169;-74
2023/12/26 03:17:11;;;;;;;15.10;2.83;;;9.60;99.90;;;-144.20;100.00;62730.56;4171077;28;20041;-74
2023/12/26 03:19:12;;;;;;;13.82;2.40;;;9.60;99.90;;;-144.20;100.00;62730.56;4170795;28;20116;-74
2023/12/26 03:21:13;;;;;;;17.60;3.15;;;9.70;99.90;;;-144.20;100.00;62730.56;4186175;28;20032;-74
2023/12/26 03:23:13;;;;;;;15.88;3.35;;;9.70;99.90;;;-144.20;100.00;62730.56;4169890;28;20056;-74
2023/12/26 03:25:14;;;;;;;13.52;2.80;;;9.80;99.90;;;-144.20;100.00;62730.56;4170891;28;20036;-74
2023/12/26 03:27:15;;;;;;;14.68;2.80;;;9.80;99.90;;;-144.20;100.00;62730.56;4169676;28;20093;-74
2023/12/26 03:29:16;;;;;;;11.98;2.08;;;9.90;99.90;;;-144.20;100.00;62730.56;4169254;28;20013;-74
2023/12/26 03:31:17;;;;;;;9.02;2.08;;;9.90;99.90;;;-144.20;100.00;62730.56;4170916;28;20075;-74
2023/12/26 03:33:18;;;;;;;17.05;3.35;;;9.90;99.90;;;-144.20;100.00;62730.56;4170858;28;20021;-74
2023/12/26 03:35:18;;;;;;;8.20;2.17;;;9.90;99.90;;;-144.20;100.00;62730.56;4170814;28;20075;-74
2023/12/26 03:37:20;;;;;;;16.20;2.28;;;9.90;99.90;;;-144.20;100.00;62730.56;4170759;28;20022;-74
2023/12/26 03:39:20;;;;;;;12.65;2.40;;;9.90;99.90;;;-144.20;100.00;62730.56;4170900;28;20071;-73
2023/12/26 03:41:21;;;;;;;14.68;3.40;;;9.90;99.90;;;-144.20;100.00;62730.56;4169463;28;20481;-74
2023/12/26 03:43:22;;;;;;;9.82;2.28;;;9.90;99.90;;;-144.20;100.00;62730.56;4170651;28;20029;-74
2023/12/26 03:45:26;;;;;;;8.68;2.20;;;9.90;99.90;;;-144.20;100.00;62730.56;4170644;28;20030;-74
2023/12/26 03:47:27;;;;;;;15.20;2.13;;;10.00;99.90;;;-144.20;100.00;62730.56;4170712;28;20017;-74
2023/12/26 03:49:27;;;;;;;7.25;1.75;;;10.00;99.90;;;-144.20;100.00;62730.56;4169498;28;20408;-74
2023/12/26 03:51:28;;;;;;;12.90;2.45;;;10.00;99.90;;;-144.20;100.00;62730.56;4169358;28;20404;-74
2023/12/26 03:53:29;;;;;;;11.43;2.17;;;10.00;99.90;;;-144.20;100.00;62730.56;4170408;28;20034;-74
2023/12/26 03:55:30;;;;;;;11.07;2.53;;;10.10;99.90;;;-144.20;100.00;62730.56;4169405;28;20025;-74
2023/12/26 03:57:31;;;;;;;14.80;3.15;;;10.10;99.90;;;-144.20;100.00;62730.56;4169211;28;20036;-74
2023/12/26 03:59:32;;;;;;;8.75;2.38;;;10.10;99.90;;;-144.20;100.00;62730.56;4168959;28;20021;-74
2023/12/26 04:01:33;;;;;;;12.02;2.15;;;10.10;99.90;;;-144.20;100.00;62730.56;4170237;28;20049;-74
2023/12/26 04:03:34;;;;;;;9.73;2.50;;;10.10;99.90;;;-144.20;100.00;62730.56;4170437;28;20024;-74
2023/12/26 04:05:35;;;;;;;7.07;2.95;;;10.00;99.90;;;-144.20;100.00;62730.56;4202202;28;20043;-74
2023/12/26 04:07:36;;;;;;;12.32;1.67;;;10.00;99.90;;;-144.20;100.00;62730.56;4170376;28;20026;-74
2023/12/26 04:09:37;;;;;;;18.17;2.38;;;9.90;99.90;;;-144.20;100.00;62730.56;4170149;28;20105;-74
2023/12/26 04:11:38;;;;;;;10.30;2.75;;;9.90;99.90;;;-144.20;100.00;62730.56;4159766;28;20425;-74
2023/12/26 04:13:39;;;;;;;12.63;2.08;;;9.90;99.90;;;-144.20;100.00;62730.56;4168812;28;20044;-74
2023/12/26 04:15:40;;;;;;;12.75;1.92;;;9.90;99.90;;;-144.20;100.00;62730.56;4169003;28;20095;-74
2023/12/26 04:17:41;;;;;;;12.38;2.25;;;9.90;99.90;;;-144.20;100.00;62730.56;4168644;28;20025;-74
2023/12/26 04:19:42;;;;;;;16.25;2.78;;;9.90;99.90;;;-144.20;100.00;62730.56;4169046;28;20554;-74
2023/12/26 04:21:43;;;;;;;9.00;2.17;;;9.90;99.90;;;-144.20;100.00;62730.56;4168718;28;20033;-74
2023/12/26 04:23:44;;;;;;;11.43;2.28;;;9.80;99.90;;;-144.20;100.00;62730.56;4170112;28;20017;-74
2023/12/26 04:25:45;;;;;;;9.25;1.92;;;9.80;99.90;;;-144.20;100.00;62730.56;4168609;28;20111;-74
2023/12/26 04:27:45;;;;;;;12.68;2.53;;;9.80;99.90;;;-144.20;100.00;62730.56;4169855;28;20095;-74
2023/12/26 04:29:46;;;;;;;7.03;2.17;;;9.80;99.90;;;-144.20;100.00;62730.56;4168814;28;20029;-74
2023/12/26 04:31:47;;;;;;;16.30;2.42;;;9.70;99.90;;;-144.20;100.00;62730.56;4169837;28;20405;-74
2023/12/26 04:33:48;;;;;;;12.10;1.80;;;9.70;99.90;;;-144.20;100.00;62730.56;4169787;28;20432;-74
2023/12/26 04:35:49;;;;;;;9.05;1.90;;;9.60;99.90;;;-144.20;100.00;62730.56;4169962;28;20061;-74
2023/12/26 04:37:50;;;;;;;15.68;2.92;;;9.50;99.90;;;-144.20;100.00;62730.56;4170008;28;20025;-73
2023/12/26 04:39:50;;;;;;;8.90;2.08;;;9.40;99.90;;;-144.20;100.00;62730.56;4168484;28;20029;-74
2023/12/26 04:41:51;;;;;;;11.02;2.40;;;9.30;99.90;;;-144.20;100.00;62730.56;4167827;28;20030;-74
2023/12/26 04:43:52;;;;;;;11.68;2.40;;;9.20;99.90;;;-144.20;100.00;62730.56;4168453;28;20087;-74
2023/12/26 04:45:53;;;;;;;8.90;1.85;;;9.10;99.90;;;-144.20;100.00;62730.56;4168612;28;20025;-74
2023/12/26 04:47:53;;;;;;;10.10;2.22;;;9.00;99.90;;;-144.20;100.00;62730.56;4171928;28;20044;-74
2023/12/26 04:49:54;;;;;;;10.40;2.10;;;8.90;99.90;;;-144.20;100.00;62730.56;4169655;28;20026;-74
2023/12/26 04:51:55;;;;;;;14.50;2.35;;;8.80;99.90;;;-144.20;100.00;62730.56;4169399;28;20017;-74
2023/12/26 04:53:56;;;;;;;14.43;2.75;;;8.70;99.90;;;-144.20;100.00;62730.56;4169643;28;20092;-74
2023/12/26 04:55:57;;;;;;;12.77;2.40;;;8.60;99.90;;;-144.20;100.00;62730.56;4169667;28;20037;-74
2023/12/26 04:57:59;;;;;;;12.63;2.08;;;8.50;99.90;;;-144.20;100.00;62730.56;4169226;28;20033;-74
2023/12/26 05:00:00;;;;;;;10.55;1.92;;;8.40;99.90;;;-144.20;100.00;62730.56;4168767;28;20083;-74
2023/12/26 05:02:01;;;;;;;10.27;1.90;;;8.40;99.90;;;-144.20;100.00;62730.56;4168034;28;20437;-74
2023/12/26 05:04:03;;;;;;;11.55;1.73;;;8.40;99.90;;;-144.20;100.00;62730.56;4169468;28;20076;-74
2023/12/26 05:06:05;;;;;;;12.90;2.30;;;8.40;99.90;;;-144.20;100.00;62730.56;4168065;28;20029;-74
2023/12/26 05:08:06;;;;;;;9.63;1.45;;;8.40;99.90;;;-144.20;100.00;62730.56;4169363;28;20088;-73
2023/12/26 05:10:07;;;;;;;7.22;1.70;;;8.40;99.90;;;-144.20;100.00;62730.56;4169245;28;20029;-74
2023/12/26 05:12:08;;;;;;;14.48;2.35;;;8.40;99.90;;;-144.20;100.00;62730.56;4169346;28;20078;-74
2023/12/26 05:14:09;;;;;;;10.32;2.33;;;8.40;99.90;;;-144.20;100.00;62730.56;4169030;28;20439;-74
2023/12/26 05:16:09;;;;;;;18.00;3.30;;;8.30;99.90;;;-144.20;100.00;62730.56;4168285;28;20030;-74
2023/12/26 05:18:11;;;;;;;6.82;1.80;;;8.30;99.90;;;-144.20;100.00;62730.56;4168046;28;20053;-74
2023/12/26 05:20:12;;;;;;;11.40;2.25;;;8.30;99.90;;;-144.20;100.00;62730.56;4201100;28;20047;-73
2023/12/26 05:22:13;;;;;;;10.82;1.80;;;8.20;99.90;;;-144.20;100.00;62730.56;4169149;28;20048;-74
2023/12/26 05:24:13;;;;;;;18.05;3.47;;;8.20;99.90;;;-144.20;100.00;62730.56;4184285;28;20067;-74
2023/12/26 05:26:15;;;;;;;15.57;2.67;;;8.20;99.90;;;-144.20;100.00;62730.56;4169112;28;20029;-74
2023/12/26 05:28:16;;;;;;;11.13;1.90;;;8.20;99.90;;;-144.20;100.00;62730.56;4168878;28;20039;-74
2023/12/26 05:30:17;;;;;;;8.93;1.80;;;8.30;99.90;;;-144.20;100.00;62730.56;4168473;28;20017;-74
2023/12/26 05:32:18;;;;;;;12.30;2.47;;;8.30;99.90;;;-144.20;100.00;62730.56;4168872;28;20026;-74
2023/12/26 05:34:19;;;;;;;13.93;2.25;;;8.40;99.90;;;-144.20;100.00;62730.56;4168047;28;20053;-73
2023/12/26 05:36:20;;;;;;;5.90;2.05;;;8.40;99.90;;;-144.20;100.00;62730.56;4169047;28;20097;-74
2023/12/26 05:38:22;;;;;;;16.10;3.35;;;8.30;99.90;;;-144.20;100.00;62730.56;4167772;28;20018;-74
2023/12/26 05:40:23;;;;;;;15.30;2.38;;;8.30;99.90;;;-144.20;100.00;62730.56;4167591;28;20382;-73
2023/12/26 05:42:24;;;;;;;7.82;1.80;;;8.30;99.90;;;-144.20;100.00;62730.56;4167789;28;20040;-74
2023/12/26 05:44:24;;;;;;;9.48;2.15;;;8.30;99.90;;;-144.20;100.00;62730.56;4168696;28;20060;-74
2023/12/26 05:46:29;;;;;;;9.68;2.50;;;8.40;99.90;;;-144.20;100.00;62730.56;4167607;28;20025;-74
2023/12/26 05:48:30;;;;;;;13.55;1.90;;;8.30;99.90;;;-144.20;100.00;62730.56;4167559;28;20385;-74
2023/12/26 05:50:31;;;;;;;11.20;2.80;;;8.40;99.90;;;-144.20;100.00;62730.56;4164902;28;20033;-74
2023/12/26 05:52:32;;;;;;;10.80;2.60;;;8.40;99.90;;;-144.20;100.00;62730.56;4162202;28;20021;-74
2023/12/26 05:54:32;;;;;;;14.75;2.45;;;8.50;99.90;;;-144.20;100.00;62730.56;4151169;28;20022;-74
2023/12/26 05:56:33;;;;;;;13.25;2.47;;;8.50;99.90;;;-144.20;100.00;62730.56;4167434;28;20034;-74
2023/12/26 05:58:34;;;;;;;9.10;1.90;;;8.60;99.90;;;-144.20;100.00;62730.56;4167237;28;20041;-74
2023/12/26 06:00:35;;;;;;;8.02;1.88;;;8.60;99.90;;;-144.20;100.00;62730.56;4168912;28;20029;-74
2023/12/26 06:02:36;;;;;;;11.98;2.30;;;8.60;99.90;;;-144.20;100.00;62730.56;4167658;28;20030;-74
2023/12/26 06:04:36;;;;;;;12.57;3.00;;;8.60;99.90;;;-144.20;100.00;62730.56;4168606;28;20029;-74
2023/12/26 06:06:37;;;;;;;12.75;3.10;;;8.70;99.90;;;-144.20;100.00;62730.56;4168677;28;20048;-73
2023/12/26 06:08:40;;;;;;;7.68;1.65;;;8.60;99.90;;;-144.20;100.00;62730.56;4168730;28;20034;-73
2023/12/26 06:10:41;;;;;;;12.48;1.80;;;8.70;99.90;;;-144.20;100.00;62730.56;4162484;28;20022;-74
2023/12/26 06:12:41;;;;;;;9.85;1.83;;;8.60;99.90;;;-144.20;100.00;62730.56;4197918;28;20024;-74
2023/12/26 06:14:42;;;;;;;9.93;1.63;;;8.60;99.90;;;-144.20;100.00;62730.56;4168831;28;20021;-74
2023/12/26 06:16:43;;;;;;;9.50;1.83;;;8.60;99.90;;;-144.20;100.00;62730.56;4168702;28;20030;-74
2023/12/26 06:18:44;;;;;;;9.02;2.30;;;8.60;99.90;;;-144.20;100.00;62730.56;4167373;28;20517;-74
2023/12/26 06:20:45;;;;;;;11.82;2.05;;;8.60;99.90;;;-144.20;100.00;62730.56;4163454;28;20030;-74
2023/12/26 06:22:45;;;;;;;8.20;2.05;;;8.60;99.90;;;-144.20;100.00;62730.56;4167463;28;20030;-73
2023/12/26 06:24:46;;;;;;;12.00;1.52;;;8.60;99.90;;;-144.20;100.00;62730.56;4168611;28;20032;-74
2023/12/26 06:26:47;;;;;;;7.05;1.90;;;8.50;99.90;;;-144.20;100.00;62730.56;4168463;28;20029;-74
2023/12/26 06:28:48;;;;;;;6.65;1.60;;;8.50;99.90;;;-144.20;100.00;62730.56;4168261;28;20665;-74
2023/12/26 06:30:49;;;;;;;8.90;1.52;;;8.50;99.90;;;-144.20;100.00;62730.56;4167029;28;20021;-74
2023/12/26 06:32:51;;;;;;;6.70;1.65;;;8.50;99.90;;;-144.20;100.00;62730.56;4167252;28;20025;-73
2023/12/26 06:34:52;;;;;;;7.68;1.48;;;8.40;99.90;;;-144.20;100.00;62730.56;4167197;28;20022;-74
2023/12/26 06:36:53;;;;;;;9.40;1.60;;;8.40;99.90;;;-144.20;100.00;62730.56;4200338;28;20036;-74
2023/12/26 06:38:56;;;;;;;7.22;2.13;;;8.40;99.90;;;-144.20;100.00;62730.56;4168416;28;20033;-74
2023/12/26 06:40:57;;;;;;;8.95;1.65;;;8.40;99.90;;;-144.20;100.00;62730.56;4166784;28;20029;-74
2023/12/26 06:42:58;;;;;;;4.57;1.30;;;8.40;99.90;;;-144.20;100.00;62730.56;4168281;28;20091;-74
2023/12/26 06:44:59;;;;;;;9.23;2.90;;;8.40;99.90;;;-144.20;100.00;62730.56;4171594;28;20037;-73
2023/12/26 06:46:59;;;;;;;8.75;1.65;;;8.40;99.90;;;-144.20;100.00;62730.56;4170457;28;20537;-74
2023/12/26 06:49:00;;;;;;;10.48;1.98;;;8.40;99.90;;;-144.20;100.00;62730.56;4171668;28;20040;-74
2023/12/26 06:51:05;;;;;;;11.32;1.98;;;8.40;99.90;;;-144.20;100.00;62730.56;4171495;28;20029;-74
2023/12/26 06:53:05;;;;;;;;;;;8.40;99.90;;;-144.20;100.00;62730.56;4170518;28;20067;-74
2023/12/26 06:55:07;;;;;;;9.15;2.08;;;8.50;99.90;;;-144.20;100.00;62730.56;4171618;28;19934;-74
2023/12/26 06:57:15;;;;;;;6.90;1.30;;;8.50;99.90;;;-144.20;100.00;62730.56;4173519;28;20029;-73
2023/12/26 06:59:16;;;;;;;10.25;1.45;;;8.60;99.90;;;-144.20;100.00;62730.56;4177476;28;20034;-74
2023/12/26 07:01:17;;;;;;;12.88;1.98;;;8.70;99.90;;;-144.20;100.00;62730.56;4170070;28;20021;-74
2023/12/26 07:03:17;;;;;;;11.93;1.92;;;8.70;99.90;;;-144.20;100.00;62730.56;4171294;28;20018;-74
2023/12/26 07:05:18;;;;;;;10.80;2.03;;;8.60;99.90;;;-144.20;100.00;62730.56;4202824;28;20029;-74
2023/12/26 07:07:19;;;;;;;7.93;2.42;;;8.70;99.90;;;-144.20;100.00;62730.56;4171192;28;20038;-74
2023/12/26 07:09:20;;;;;;;7.15;1.73;;;8.60;99.90;;;-144.20;100.00;62730.56;4171222;28;20096;-74
2023/12/26 07:11:21;;;;;;;8.88;1.63;;;8.60;99.90;;;-144.20;100.00;62730.56;4164438;28;20539;-73
2023/12/26 07:13:22;;;;;;;9.77;2.17;;;8.70;99.90;;;-144.20;100.00;62730.56;4169860;28;20056;-74
2023/12/26 07:15:23;;;;;;;8.00;1.50;;;8.70;99.90;;;-144.20;100.00;62730.56;4171193;28;20538;-74
2023/12/26 07:17:23;;;;;;;8.27;2.10;;;8.70;99.90;;;-144.20;100.00;62730.56;4171158;28;20029;-74
2023/12/26 07:19:24;;;;;;;11.88;1.50;;;8.70;99.90;;;-144.20;100.00;62730.56;4170927;28;20053;-74
2023/12/26 07:21:25;;;;;;;13.70;2.00;;;8.70;99.90;;;-144.20;100.00;62730.56;4169847;28;20492;-74
2023/12/26 07:23:26;;;;;;;16.95;2.22;;;8.80;99.90;;;-144.20;100.00;62730.56;4171261;28;20033;-74
2023/12/26 07:25:29;;;;;;;12.20;2.38;;;8.80;99.90;;;-144.20;100.00;62730.56;4202668;28;20043;-74
2023/12/26 07:27:30;;;;;;;11.25;1.92;;;8.80;99.90;;;-144.20;100.00;62730.56;4170058;28;20029;-74
2023/12/26 07:29:30;;;;;;;7.05;1.70;;;8.90;99.90;;;-144.20;100.00;62730.56;4170645;28;20511;-74
2023/12/26 07:31:32;;;;;;;6.40;1.55;;;9.00;99.90;;;-144.20;100.00;62730.56;4202774;28;20032;-74
2023/12/26 07:33:33;;;;;;;8.82;2.03;;;9.00;99.90;;;-144.20;100.00;62730.56;4169364;28;20022;-74
2023/12/26 07:35:38;;;;;;;9.43;2.35;;;9.10;99.90;;;-144.20;100.00;62730.56;4169612;28;20025;-74
2023/12/26 07:37:39;;;;;;;7.85;1.42;;;9.20;99.90;;;-144.20;100.00;62730.56;4169749;28;20103;-74
2023/12/26 07:39:40;;;;;;;8.43;1.60;;;9.20;99.90;;;-144.20;100.00;62730.56;4170750;28;20029;-74
2023/12/26 07:41:41;;;;;;;7.90;1.73;;;9.30;99.90;;;-144.20;100.00;62730.56;4157845;28;20030;-74
2023/12/26 07:43:42;;;;;;;7.10;1.88;;;9.30;99.90;;;-144.20;100.00;62730.56;4169851;28;20027;-74
2023/12/26 07:45:43;;;;;;;9.70;3.13;;;9.40;99.90;;;-144.20;100.00;62730.56;4169501;28;20021;-74
2023/12/26 07:47:44;;;;;;;9.25;2.17;;;9.40;99.90;;;-144.20;100.00;62730.56;4169562;28;20146;-74
2023/12/26 07:49:45;;;;;;;5.45;2.72;;;9.50;99.90;;;-144.20;100.00;62730.56;4170664;28;20489;-74
2023/12/26 07:51:46;;;;;;;5.18;1.42;;;9.50;99.90;;;-144.20;100.00;62730.56;4169175;28;20671;-74
2023/12/26 07:53:47;;;;;;;8.35;2.72;;;9.60;99.90;;;-144.20;100.00;62730.56;4169243;28;20390;-74
2023/12/26 07:55:49;;;;;;;6.57;1.73;;;9.60;99.90;;;-144.20;100.00;62730.56;4170592;28;20041;-74
2023/12/26 07:57:50;;;;;;;6.10;1.52;;;9.60;99.90;;;-144.20;100.00;62730.56;4169042;28;20037;-74
2023/12/26 07:59:51;;;;;;;7.38;2.50;;;9.70;99.90;;;-144.20;100.00;62730.56;4170318;28;20030;-74
2023/12/26 08:01:52;;;;;;;7.43;2.50;;;9.70;99.90;;;-144.20;100.00;62730.56;4162633;28;20485;-74
2023/12/26 08:03:53;;;;;;;9.27;2.38;;;9.70;99.90;;;-144.20;100.00;62730.56;4169256;28;20029;-74
2023/12/26 08:05:54;;;;;;;11.02;2.53;;;9.70;99.90;;;-144.20;100.00;62730.56;4169114;28;20037;-74
2023/12/26 08:07:54;;;;;;;8.43;2.65;;;9.70;99.90;;;-144.20;100.00;62730.56;4170222;28;20397;-74
2023/12/26 08:09:55;;;;;;;7.60;1.83;;;9.80;99.90;;;-144.20;100.00;62730.56;4170373;28;20500;-74
2023/12/26 08:11:56;;;;;;;10.98;1.75;;;9.80;99.90;;;-144.20;100.00;62730.56;4196610;28;20028;-74
2023/12/26 08:13:57;;;;;;;7.57;1.60;;;9.90;99.90;;;-144.20;100.00;62730.56;4170081;28;20075;-74